Cave Spring, Virginia
Current Conditions -  °F | °C
As of 1:54 PM on Thursday 18 Dec 2014 (Local Time) from KROA Reporting Station
Overcast Overcast  
Wind Chill: 35°   Ceiling: 12000
Heat Index: 40°   Visibility: 10mi
Dew Point: 22°   Wind: 7mph
Humidity: 49%   Direction: 260°W
Pressure: 30.1"   Gusts: NA
Location:  37.23°N, 80.01°W
Report Text: KROA 181854Z 26006KT 10SM OVC120 04/M06 A3010 RMK AO2 SLP197 T00441056
Loading
Personal Weather Stations






























Interactive Weather Map New forecast layout! Learn more

10-Day Weather Forecast

Advertisements
Track Severe Weather on mobile